Dione Star — CRA7129 — position and weather

sailwx.info

Track history (hours):
 
Tides and Currents Weather Stations Pressure Air Temp Water Temp Dewpoint Dewpoint Depression Visibility Wind Speed Wind Dir Waves Ship Positions

Dione Star

Last reported at 2018-May-22 17:38 UTC. Time now 2018-Jun-19 02:35 UTC.
Position N 17°54' W 062°54'.
Warning: this ship's position is 27 days out of date.

Length 42 m; draft 4 m.

Type: Sailing vessel. MMSI: 255912960.

Date/timePositionNaut miles runAvg speedWind from/ knotsBaromVisibWave heightAir tempDewpointWater temp
2018-May-22 17:38N 17°54' W 062°54'2 6.0
2018-May-22 17:21N 17°53' W 062°55'5 4.4
2018-May-22 16:21N 17°55' W 062°60'5 7.3
2018-May-22 15:43N 17°59' W 063°03'1 4.8
2018-May-22 15:30N 17°60' W 063°03'2 4.1
2018-May-22 15:00N 18°00' W 063°05'2 3.8
2018-May-22 14:30N 18°02' W 063°05'0 0.4
2018-May-22 14:00N 18°02' W 063°06'0 0.1
2018-May-22 13:21N 18°02' W 063°06'0 0.0
2018-May-22 12:51N 18°02' W 063°06'0 0.0
2018-May-22 12:24N 18°02' W 063°06'0 0.0
2018-May-22 11:51N 18°02' W 063°06'0 0.0
2018-May-22 11:24N 18°02' W 063°06'0 0.0
2018-May-22 10:51N 18°02' W 063°06'0 0.0
2018-May-22 10:21N 18°02' W 063°06'0 0.0
2018-May-22 09:51N 18°02' W 063°06'0 0.0
2018-May-22 09:24N 18°02' W 063°06'0 0.0
2018-May-22 08:57N 18°02' W 063°06'0 0.0
2018-May-22 08:27N 18°02' W 063°06'0 0.0
2018-May-22 07:57N 18°02' W 063°06'0 0.0
2018-May-22 07:27N 18°02' W 063°06'0 0.0
2018-May-22 07:00N 18°02' W 063°06'0 0.0
2018-May-22 06:30N 18°02' W 063°06'0 0.0
2018-May-22 05:57N 18°02' W 063°06'0 0.0
2018-May-22 05:30N 18°02' W 063°06'0 0.0
2018-May-22 04:57N 18°02' W 063°06'0 0.0
2018-May-22 04:30N 18°02' W 063°06'0 0.0
2018-May-22 04:00N 18°02' W 063°06'0 0.0
2018-May-22 03:30N 18°02' W 063°06'0 0.0
2018-May-22 02:57N 18°02' W 063°06'0 0.0
2018-May-22 02:30N 18°02' W 063°06'0 0.0
2018-May-22 01:57N 18°02' W 063°06'0 0.0
2018-May-22 01:30N 18°02' W 063°06'0 0.0
2018-May-22 00:51N 18°02' W 063°06'0 0.0
2018-May-22 00:15N 18°02' W 063°06'0 0.0
2018-May-21 23:51N 18°02' W 063°06'0 0.0
2018-May-21 23:21N 18°02' W 063°06'0 0.0
2018-May-21 23:00N 18°02' W 063°06'0 0.0
2018-May-21 22:18N 18°02' W 063°06'0 0.0
2018-May-21 21:48N 18°02' W 063°06'0 0.0
2018-May-21 21:30N 18°02' W 063°06'0 0.0
2018-May-21 20:54N 18°02' W 063°06'0 0.0
2018-May-21 20:24N 18°02' W 063°06'0 0.0
2018-May-21 19:54N 18°02' W 063°06'0 0.0
2018-May-21 19:24N 18°02' W 063°06'0 0.0
2018-May-21 18:51N 18°02' W 063°06'0 0.0
2018-May-21 18:27N 18°02' W 063°06'0 0.0
2018-May-21 17:58N 18°02' W 063°06'0 0.0
2018-May-21 17:21N 18°02' W 063°06'0 0.0
2018-May-21 16:57N 18°02' W 063°06'0 0.0
2018-May-21 16:27N 18°02' W 063°06'0 0.0
2018-May-21 15:57N 18°02' W 063°06'0 0.0
2018-May-21 15:27N 18°02' W 063°06'0 0.0
2018-May-21 15:00N 18°02' W 063°06'0 0.0
2018-May-21 14:27N 18°02' W 063°06'0 0.0
2018-May-21 13:57N 18°02' W 063°06'0 0.0
2018-May-21 13:27N 18°02' W 063°06'0 0.0
2018-May-21 12:57N 18°02' W 063°06'0 0.0
2018-May-21 12:30N 18°02' W 063°06'0 0.0
2018-May-21 11:57N 18°02' W 063°06'0 0.0
2018-May-21 11:30N 18°02' W 063°06'0 0.0
2018-May-21 10:45N 18°02' W 063°06'0 0.0
2018-May-21 10:18N 18°02' W 063°06'0 0.0
2018-May-21 09:48N 18°02' W 063°06'0 0.0
2018-May-21 09:18N 18°02' W 063°06'0 0.0
2018-May-21 08:51N 18°02' W 063°06'0 0.0
2018-May-21 08:21N 18°02' W 063°06'0 0.0
2018-May-21 07:51N 18°02' W 063°06'0 0.0
2018-May-21 07:21N 18°02' W 063°06'0 0.0
2018-May-21 06:51N 18°02' W 063°06'0 0.0
2018-May-21 06:24N 18°02' W 063°06'0 0.0
2018-May-21 05:54N 18°02' W 063°06'0 0.0
2018-May-21 05:21N 18°02' W 063°06'0 0.0
2018-May-21 04:54N 18°02' W 063°06'0 0.0
2018-May-21 04:24N 18°02' W 063°06'0 0.0
2018-May-21 03:54N 18°02' W 063°06'0 0.0
2018-May-21 03:27N 18°02' W 063°06'0 0.0
2018-May-21 02:57N 18°02' W 063°06'0 0.0
2018-May-21 02:27N 18°02' W 063°06'0 0.0
2018-May-21 01:57N 18°02' W 063°06'0 0.0
2018-May-21 01:27N 18°02' W 063°06'0 0.0
2018-May-21 00:57N 18°02' W 063°06'0 0.0
2018-May-21 00:30N 18°02' W 063°06'0 0.0
2018-May-20 23:57N 18°02' W 063°06'0 0.0
2018-May-20 23:30N 18°02' W 063°06'0 0.0
2018-May-20 22:57N 18°02' W 063°06'0 0.0
2018-May-20 22:30N 18°02' W 063°06'0 0.0
2018-May-20 22:00N 18°02' W 063°06'0 0.0
2018-May-20 21:30N 18°02' W 063°06'0 0.0
2018-May-20 20:57N 18°02' W 063°06'0 0.0
2018-May-20 20:30N 18°02' W 063°06'0 0.0
2018-May-20 20:00N 18°02' W 063°06'0 0.0
2018-May-20 19:18N 18°02' W 063°06'0 0.0
2018-May-20 18:51N 18°02' W 063°06'0 0.0
2018-May-20 18:21N 18°02' W 063°06'0 0.0
2018-May-20 17:51N 18°02' W 063°06'0 0.0
2018-May-20 17:21N 18°02' W 063°06'0 0.0
2018-May-20 17:00N 18°02' W 063°06'0 0.0
2018-May-20 16:18N 18°02' W 063°06'0 0.0
2018-May-20 15:51N 18°02' W 063°06'0 0.0
2018-May-20 15:21N 18°02' W 063°06'0 0.0
2018-May-20 14:54N 18°02' W 063°06'0 0.0
2018-May-20 14:24N 18°02' W 063°06'0 0.0
2018-May-20 13:57N 18°02' W 063°06'0 0.0
2018-May-20 13:24N 18°02' W 063°06'0 0.0
2018-May-20 12:57N 18°02' W 063°06'0 0.0
2018-May-20 12:24N 18°02' W 063°06'0 0.0
2018-May-20 11:57N 18°02' W 063°06'0 0.0
2018-May-20 11:27N 18°02' W 063°06'0 0.0
2018-May-20 10:57N 18°02' W 063°06'0 0.0
2018-May-20 10:27N 18°02' W 063°06'0 0.0
2018-May-20 09:57N 18°02' W 063°06'0 0.0
2018-May-20 09:27N 18°02' W 063°06'0 0.0
2018-May-20 08:57N 18°02' W 063°06'0 0.0
2018-May-20 08:30N 18°02' W 063°06'0 0.0
2018-May-20 08:00N 18°02' W 063°06'0 0.0
2018-May-20 07:30N 18°02' W 063°06'0 0.0
2018-May-20 06:48N 18°02' W 063°06'0 0.0
2018-May-20 06:27N 18°02' W 063°06'0 0.0
2018-May-20 06:00N 18°02' W 063°06'0 0.0
2018-May-20 05:30N 18°02' W 063°06'0 0.0
2018-May-20 05:00N 18°02' W 063°06'0 0.0
2018-May-20 04:30N 18°02' W 063°06'0 0.0
2018-May-20 04:00N 18°02' W 063°06'0 0.0
2018-May-20 03:21N 18°02' W 063°06'0 0.0
2018-May-20 02:51N 18°02' W 063°06'0 0.0
2018-May-20 02:21N 18°02' W 063°06'0 0.0
2018-May-20 01:51N 18°02' W 063°06'0 0.0
2018-May-20 01:21N 18°02' W 063°06'0 0.0
2018-May-20 00:54N 18°02' W 063°06'0 0.0
2018-May-20 00:21N 18°02' W 063°06'0 0.0
2018-May-19 23:51N 18°02' W 063°06'0 0.0
2018-May-19 23:24N 18°02' W 063°06'0 0.0
2018-May-19 22:57N 18°02' W 063°06'0 0.0
2018-May-19 22:27N 18°02' W 063°06'0 0.0
2018-May-19 21:57N 18°02' W 063°06'0 0.0
2018-May-19 21:27N 18°02' W 063°06'0 0.0
2018-May-19 20:57N 18°02' W 063°06'0 0.0
2018-May-19 20:27N 18°02' W 063°06'0 0.0
2018-May-19 19:57N 18°02' W 063°06'0 0.0
2018-May-19 19:27N 18°02' W 063°06'0 0.0
2018-May-19 18:57N 18°02' W 063°06'0 0.0
2018-May-19 18:30N 18°02' W 063°06'0 0.0
2018-May-19 17:57N 18°02' W 063°06'0 0.0
2018-May-19 17:30N 18°02' W 063°06'0 0.0
2018-May-19 16:45N 18°02' W 063°06'0 0.0
2018-May-19 16:27N 18°02' W 063°06'0 0.0
2018-May-19 15:57N 18°02' W 063°06'0 0.0
2018-May-19 15:30N 18°02' W 063°06'0 0.0
2018-May-19 14:33N 18°02' W 063°06'0 0.0
2018-May-19 14:30N 18°02' W 063°06'0 0.0
2018-May-19 14:00N 18°02' W 063°06'0 0.0
2018-May-19 13:30N 18°02' W 063°06'0 0.0
2018-May-19 12:51N 18°02' W 063°06'0 0.0
2018-May-19 12:21N 18°02' W 063°06'0 0.0
2018-May-19 11:51N 18°02' W 063°06'0 0.0
2018-May-19 11:24N 18°02' W 063°06'0 0.0
2018-May-19 10:51N 18°02' W 063°06'0 0.0
2018-May-19 10:18N 18°02' W 063°06'0 0.0
2018-May-19 09:54N 18°02' W 063°06'0 0.0
2018-May-19 09:09N 18°02' W 063°06'0 0.0
2018-May-19 08:54N 18°02' W 063°06'0 0.0
2018-May-19 08:21N 18°02' W 063°06'0 0.0
2018-May-19 07:51N 18°02' W 063°06'0 0.0
2018-May-19 07:12N 18°02' W 063°06'0 0.0
2018-May-19 06:57N 18°02' W 063°06'0 0.0
2018-May-19 06:27N 18°02' W 063°06'0 0.0
2018-May-19 05:57N 18°02' W 063°06'0 0.0
2018-May-19 05:30N 18°02' W 063°06'0 0.0
2018-May-19 05:00N 18°02' W 063°06'0 0.0
2018-May-19 04:30N 18°02' W 063°06'0 0.0
2018-May-19 04:00N 18°02' W 063°06'0 0.0
2018-May-19 03:30N 18°02' W 063°06'0 0.0
2018-May-19 03:00N 18°02' W 063°06'0 0.0
2018-May-19 02:30N 18°02' W 063°06'0 0.0
2018-May-19 02:00N 18°02' W 063°06'0 0.0
2018-May-19 01:30N 18°02' W 063°06'0 0.0
2018-May-19 01:00N 18°02' W 063°06'0 0.0
2018-May-19 00:18N 18°02' W 063°06'0 0.0
2018-May-19 00:00N 18°02' W 063°06'0 0.0
2018-May-18 23:30N 18°02' W 063°06'0 0.0
2018-May-18 23:00N 18°02' W 063°06'0 0.0
2018-May-18 22:30N 18°02' W 063°06'0 0.0
2018-May-18 22:00N 18°02' W 063°06'0 0.0
2018-May-18 21:21N 18°02' W 063°06'0 0.0
2018-May-18 20:48N 18°02' W 063°06'0 0.0
2018-May-18 20:18N 18°02' W 063°06'0 0.0
2018-May-18 19:54N 18°02' W 063°06'0 0.0
2018-May-18 19:24N 18°02' W 063°06'0 0.0
2018-May-18 18:54N 18°02' W 063°06'0 0.0
2018-May-18 18:24N 18°02' W 063°06'0 0.0
2018-May-18 17:54N 18°02' W 063°06'0 0.0
2018-May-18 17:27N 18°02' W 063°06'0 0.0
2018-May-18 16:54N 18°02' W 063°06'0 0.0
2018-May-18 16:12N 18°02' W 063°06'0 0.0
2018-May-18 15:57N 18°02' W 063°06'0 0.0
2018-May-18 15:27N 18°02' W 063°06'0 0.0
2018-May-18 14:57N 18°02' W 063°06'0 0.0
2018-May-18 14:27N 18°02' W 063°06'0 0.0
2018-May-18 13:39N 18°02' W 063°06'0 0.0
2018-May-18 13:27N 18°02' W 063°06'0 0.0
2018-May-18 12:45N 18°02' W 063°06'0 0.0
2018-May-18 12:30N 18°02' W 063°06'0 0.0
2018-May-18 12:00N 18°02' W 063°06'0 0.0
2018-May-18 11:30N 18°02' W 063°06'0 0.0
2018-May-18 11:00N 18°02' W 063°06'0 0.0
2018-May-18 10:30N 18°02' W 063°06'0 0.0
2018-May-18 10:00N 18°02' W 063°06'0 0.0
2018-May-18 09:30N 18°02' W 063°06'0 0.0
2018-May-18 08:48N 18°02' W 063°06'0 0.0
2018-May-18 08:30N 18°02' W 063°06'0 0.0
2018-May-18 07:51N 18°02' W 063°06'0 0.0
2018-May-18 07:30N 18°02' W 063°06'0 0.0
2018-May-18 06:51N 18°02' W 063°06'0 0.0
2018-May-18 06:21N 18°02' W 063°06'0 0.0
2018-May-18 05:51N 18°02' W 063°06'0 0.0
2018-May-18 05:24N 18°02' W 063°06'0 0.0
2018-May-18 04:54N 18°02' W 063°06'0 0.0
2018-May-18 04:24N 18°02' W 063°06'0 0.0
2018-May-18 03:51N 18°02' W 063°06'0 0.0
2018-May-18 03:24N 18°02' W 063°06'0 0.0
2018-May-18 02:57N 18°02' W 063°06'0 0.0
2018-May-18 02:27N 18°02' W 063°06'0 0.0
2018-May-18 01:57N 18°02' W 063°06'0 0.0
2018-May-18 01:27N 18°02' W 063°06'0 0.0
2018-May-18 00:57N 18°02' W 063°06'0 0.0
2018-May-18 00:27N 18°02' W 063°06'0 0.0
2018-May-17 23:57N 18°02' W 063°06'0 0.0
2018-May-17 23:27N 18°02' W 063°06'0 0.0
2018-May-17 23:00N 18°02' W 063°06'0 0.0
2018-May-17 22:27N 18°02' W 063°06'0 0.0
2018-May-17 22:00N 18°02' W 063°06'0 0.0
2018-May-17 21:27N 18°02' W 063°06'0 0.0
2018-May-17 20:57N 18°02' W 063°06'0 0.0
2018-May-17 20:27N 18°02' W 063°06'0 0.0
2018-May-17 19:48N 18°02' W 063°06'0 0.0
2018-May-17 19:30N 18°02' W 063°06'0 0.0
2018-May-17 18:48N 18°02' W 063°06'0 0.0
2018-May-17 18:30N 18°02' W 063°06'0 0.0
2018-May-17 18:00N 18°02' W 063°06'0 0.0
2018-May-17 17:21N 18°02' W 063°06'0 0.0
2018-May-17 17:00N 18°02' W 063°06'0 0.0
2018-May-17 16:21N 18°02' W 063°06'0 0.0
2018-May-17 15:09N 18°02' W 063°06'0 0.0
2018-May-17 14:51N 18°02' W 063°06'0 0.0
2018-May-17 14:24N 18°02' W 063°06'0 0.0
2018-May-17 13:54N 18°02' W 063°06'0 0.0
2018-May-17 13:24N 18°02' W 063°06'0 0.0
2018-May-17 12:54N 18°02' W 063°06'0 0.0
2018-May-17 12:27N 18°02' W 063°06'0 0.0
2018-May-17 11:57N 18°02' W 063°06'0 0.0
2018-May-17 11:27N 18°02' W 063°06'0 0.0
2018-May-17 10:57N 18°02' W 063°06'0 0.0
2018-May-17 10:27N 18°02' W 063°06'0 0.0
2018-May-17 09:51N 18°02' W 063°06'0 0.0
2018-May-17 09:27N 18°02' W 063°06'0 0.0
2018-May-17 08:57N 18°02' W 063°06'0 0.0
2018-May-17 08:30N 18°02' W 063°06'0 0.0
2018-May-17 08:00N 18°02' W 063°06'0 0.0
2018-May-17 07:30N 18°02' W 063°06'0 0.0
2018-May-17 07:00N 18°02' W 063°06'0 0.0
2018-May-17 06:27N 18°02' W 063°06'0 0.0
2018-May-17 05:57N 18°02' W 063°06'0 0.0
2018-May-17 05:27N 18°02' W 063°06'0 0.0
2018-May-17 05:00N 18°02' W 063°06'0 0.0
2018-May-17 04:30N 18°02' W 063°06'0 0.0
2018-May-17 04:00N 18°02' W 063°06'0 0.0
2018-May-17 03:30N 18°02' W 063°06'0 0.0
2018-May-17 02:51N 18°02' W 063°06'0 0.0
2018-May-17 02:21N 18°02' W 063°06'0 0.0
2018-May-17 02:00N 18°02' W 063°06'0 0.0
2018-May-17 01:21N 18°02' W 063°06'0 0.0
2018-May-17 00:51N 18°02' W 063°06'0 0.0
2018-May-17 00:24N 18°02' W 063°06'0 0.0
2018-May-16 23:51N 18°02' W 063°06'0 0.0
2018-May-16 23:24N 18°02' W 063°06'0 0.0
2018-May-16 22:54N 18°02' W 063°06'0 0.0
2018-May-16 22:24N 18°02' W 063°06'0 0.0
2018-May-16 21:51N 18°02' W 063°06'0 0.0
2018-May-16 21:27N 18°02' W 063°06'0 0.0
2018-May-16 20:57N 18°02' W 063°06'0 0.0
2018-May-16 20:27N 18°02' W 063°06'0 0.0
2018-May-16 19:57N 18°02' W 063°06'0 0.0
2018-May-16 19:27N 18°02' W 063°06'0 0.0
2018-May-16 18:57N 18°02' W 063°06'0 0.0
2018-May-16 18:27N 18°02' W 063°06'0 0.0
2018-May-16 17:57N 18°02' W 063°06'0 0.0
2018-May-16 17:27N 18°02' W 063°06'0 0.0
2018-May-16 16:57N 18°02' W 063°06'0 0.0
2018-May-16 16:27N 18°02' W 063°06'0 0.0
2018-May-16 16:00N 18°02' W 063°06'0 0.0
2018-May-16 15:30N 18°02' W 063°06'0 0.0
2018-May-16 15:00N 18°02' W 063°06'0 0.0
2018-May-16 14:30N 18°02' W 063°06'0 0.0
2018-May-16 14:00N 18°02' W 063°06'0 0.0
2018-May-16 13:30N 18°02' W 063°06'0 0.0
2018-May-16 12:51N 18°02' W 063°06'0 0.0
2018-May-16 12:30N 18°02' W 063°06'0 0.0
2018-May-16 12:00N 18°02' W 063°06'0 0.0
2018-May-16 11:21N 18°02' W 063°06'0 0.0
2018-May-16 10:51N 18°02' W 063°06'0 0.0
2018-May-16 10:24N 18°02' W 063°06'0 0.0
2018-May-16 09:54N 18°02' W 063°06'0 0.0
2018-May-16 09:20N 18°02' W 063°06'0 0.0
2018-May-16 08:51N 18°02' W 063°06'0 0.0
2018-May-16 08:21N 18°02' W 063°06'0 0.0
2018-May-16 07:54N 18°02' W 063°06'0 0.0
2018-May-16 07:09N 18°02' W 063°06'0 0.0
2018-May-16 06:54N 18°02' W 063°06'0 0.0
2018-May-16 06:27N 18°02' W 063°06'0 0.0
2018-May-16 05:57N 18°02' W 063°06'0 0.0
2018-May-16 05:26N 18°02' W 063°06'0 0.0
2018-May-16 04:57N 18°02' W 063°06'0 0.0
2018-May-16 04:27N 18°02' W 063°06'0 0.0
2018-May-16 04:00N 18°02' W 063°06'0 0.0
2018-May-16 03:30N 18°02' W 063°06'0 0.0
2018-May-16 02:57N 18°02' W 063°06'0 0.0
2018-May-16 02:30N 18°02' W 063°06'0 0.0
2018-May-16 01:59N 18°02' W 063°06'0 0.0
2018-May-16 01:29N 18°02' W 063°06'0 0.0
2018-May-16 00:59N 18°02' W 063°06'0 0.0
2018-May-16 00:29N 18°02' W 063°06'0 0.0
2018-May-15 23:59N 18°02' W 063°06'0 0.0
2018-May-15 23:30N 18°02' W 063°06'0 0.0
2018-May-15 22:47N 18°02' W 063°06'0 0.0
2018-May-15 22:29N 18°02' W 063°06'0 0.0
2018-May-15 22:00N 18°02' W 063°06'0 0.0
2018-May-15 21:20N 18°02' W 063°06'0 0.0
2018-May-15 20:44N 18°02' W 063°06'0 0.0
2018-May-15 20:20N 18°02' W 063°06'0 0.0
2018-May-15 19:51N 18°02' W 063°06'0 0.0
2018-May-15 19:20N 18°02' W 063°06'0 0.0
2018-May-15 18:53N 18°02' W 063°06'0 0.0
2018-May-15 18:20N 18°02' W 063°06'0 0.0
2018-May-15 17:50N 18°02' W 063°06'0 0.0
2018-May-15 17:24N 18°02' W 063°06'0 0.0
2018-May-15 16:50N 18°02' W 063°06'0 0.0
2018-May-15 16:27N 18°02' W 063°06'0 0.0
2018-May-15 15:54N 18°02' W 063°06'0 0.0
2018-May-15 15:27N 18°02' W 063°06'0 0.0
2018-May-15 14:57N 18°02' W 063°06'0 0.0
2018-May-15 14:27N 18°02' W 063°06'0 0.0
2018-May-15 14:00N 18°02' W 063°06'0 0.0
2018-May-15 13:26N 18°02' W 063°06'0 0.0
2018-May-15 12:56N 18°02' W 063°06'0 0.0
2018-May-15 12:30N 18°02' W 063°06'0 0.0
2018-May-15 11:59N 18°02' W 063°06'0 0.0
2018-May-15 11:27N 18°02' W 063°06'0 0.0
2018-May-15 10:59N 18°02' W 063°06'0 0.0
2018-May-15 10:29N 18°02' W 063°06'0 0.0
2018-May-15 09:56N 18°02' W 063°06'0 0.0
2018-May-15 09:30N 18°02' W 063°06'0 0.0
2018-May-15 08:59N 18°02' W 063°06'0 0.0
2018-May-15 08:29N 18°02' W 063°06'0 0.0
2018-May-15 08:00N 18°02' W 063°06'0 0.0
2018-May-15 07:29N 18°02' W 063°06'0 0.0
2018-May-15 06:59N 18°02' W 063°06'0 0.0
2018-May-15 06:29N 18°02' W 063°06'0 0.0
2018-May-15 05:48N 18°02' W 063°06'0 0.0
2018-May-15 05:23N 18°02' W 063°06'0 0.0
2018-May-15 04:53N 18°02' W 063°06'0 0.0
2018-May-15 04:17N 18°02' W 063°06'0 0.0
2018-May-15 03:54N 18°02' W 063°06'0 0.0
2018-May-15 03:23N 18°02' W 063°06'0 0.0
2018-May-15 02:54N 18°02' W 063°06'0 0.0
2018-May-15 02:24N 18°02' W 063°06'0 0.0
2018-May-15 01:54N 18°02' W 063°06'0 0.0
2018-May-15 01:21N 18°02' W 063°06'0 0.0
2018-May-15 00:57N 18°02' W 063°06'0 0.0
2018-May-15 00:27N 18°02' W 063°06'0 0.0
2018-May-14 23:57N 18°02' W 063°06'0 0.0
2018-May-14 23:26N 18°02' W 063°06'0 0.0
2018-May-14 22:56N 18°02' W 063°06'0 0.0
2018-May-14 22:26N 18°02' W 063°06'0 0.0
2018-May-14 21:59N 18°02' W 063°06'0 0.0
2018-May-14 21:30N 18°02' W 063°06'0 0.0
2018-May-14 20:59N 18°02' W 063°06'0 0.0
2018-May-14 20:30N 18°02' W 063°06'0 0.0
2018-May-14 19:56N 18°02' W 063°06'0 0.0
2018-May-14 19:27N 18°02' W 063°06'0 0.0
2018-May-14 18:56N 18°02' W 063°06'0 0.0
2018-May-14 18:17N 18°02' W 063°06'0 0.0
2018-May-14 17:59N 18°02' W 063°06'0 0.0
2018-May-14 17:29N 18°02' W 063°06'0 0.0
2018-May-14 16:51N 18°02' W 063°06'0 0.0
2018-May-14 16:21N 18°02' W 063°06'0 0.0
2018-May-14 15:50N 18°02' W 063°06'0 0.0
2018-May-14 15:05N 18°02' W 063°06'0 0.0
2018-May-14 14:50N 18°02' W 063°06'0 0.0
2018-May-14 14:20N 18°02' W 063°06'0 0.0
2018-May-14 13:51N 18°02' W 063°06'0 0.0
2018-May-14 13:23N 18°02' W 063°06'0 0.0
2018-May-14 12:50N 18°02' W 063°06'0 0.0
2018-May-14 11:53N 18°02' W 063°06'0 0.0
2018-May-14 11:26N 18°02' W 063°06'0 0.0
2018-May-14 10:56N 18°02' W 063°06'0 0.0
2018-May-14 10:27N 18°02' W 063°06'0 0.0
2018-May-14 09:56N 18°02' W 063°06'0 0.0
2018-May-14 09:26N 18°02' W 063°06'0 0.0
2018-May-14 08:56N 18°02' W 063°06'0 0.0
2018-May-14 08:26N 18°02' W 063°06'0 0.0
2018-May-14 07:57N 18°02' W 063°06'0 0.0
2018-May-14 07:11N 18°02' W 063°06'0 0.0
2018-May-14 06:44N 18°02' W 063°06'0 0.0
2018-May-14 06:29N 18°02' W 063°06'0 0.0
2018-May-14 05:56N 18°02' W 063°06'0 0.0
2018-May-14 05:29N 18°02' W 063°06'0 0.0
2018-May-14 04:59N 18°02' W 063°06'0 0.0
2018-May-14 04:26N 18°02' W 063°06'0 0.0
2018-May-14 03:56N 18°02' W 063°06'0 0.0
2018-May-14 03:29N 18°02' W 063°06'0 0.0
2018-May-14 02:59N 18°02' W 063°06'0 0.0
2018-May-14 02:29N 18°02' W 063°06'0 0.0
2018-May-14 01:59N 18°02' W 063°06'0 0.0
2018-May-14 01:17N 18°02' W 063°06'0 0.0
2018-May-14 00:50N 18°02' W 063°06'0 0.0
2018-May-14 00:20N 18°02' W 063°06'0 0.0
2018-May-13 23:59N 18°02' W 063°06'0 0.0
2018-May-13 23:21N 18°02' W 063°06'0 0.0
2018-May-13 22:53N 18°02' W 063°06'0 0.0
2018-May-13 22:21N 18°02' W 063°06'0 0.0
2018-May-13 21:51N 18°02' W 063°06'0 0.0
2018-May-13 21:23N 18°02' W 063°06'0 0.0
2018-May-13 20:50N 18°02' W 063°06'0 0.0
2018-May-13 20:26N 18°02' W 063°06'0 0.0
2018-May-13 19:56N 18°02' W 063°06'0 0.0
2018-May-13 19:26N 18°02' W 063°06'0 0.0
2018-May-13 18:57N 18°02' W 063°06'0 0.0
2018-May-13 18:26N 18°02' W 063°06'0 0.0
2018-May-13 17:56N 18°02' W 063°06'0 0.0
2018-May-13 17:26N 18°02' W 063°06'0 0.0
2018-May-13 16:59N 18°02' W 063°06'0 0.0
2018-May-13 16:29N 18°02' W 063°06'0 0.0
2018-May-13 15:57N 18°02' W 063°06'0 0.0
2018-May-13 15:26N 18°02' W 063°06'0 0.0
2018-May-13 14:59N 18°02' W 063°06'0 0.0
2018-May-13 14:17N 18°02' W 063°06'0 0.0
2018-May-13 13:59N 18°02' W 063°06'0 0.0
2018-May-13 13:29N 18°02' W 063°06'0 0.0
2018-May-13 12:59N 18°02' W 063°06'0 0.0
2018-May-13 12:14N 18°02' W 063°06'0 0.0
2018-May-13 11:59N 18°02' W 063°06'0 0.0
2018-May-13 11:29N 18°02' W 063°06'0 0.0
2018-May-13 10:59N 18°02' W 063°06'0 0.0
2018-May-13 10:21N 18°02' W 063°06'0 0.0
2018-May-13 09:32N 18°02' W 063°06'0 0.0
2018-May-13 09:20N 18°02' W 063°06'0 0.0
2018-May-13 08:50N 18°02' W 063°06'0 0.0
2018-May-13 08:20N 18°02' W 063°06'0 0.0
2018-May-13 07:53N 18°02' W 063°06'0 0.0
2018-May-13 07:23N 18°02' W 063°06'0 0.0
2018-May-13 06:50N 18°02' W 063°06'0 0.0
2018-May-13 06:27N 18°02' W 063°06'0 0.0
2018-May-13 05:56N 18°02' W 063°06'0 0.0
2018-May-13 05:20N 18°02' W 063°06'0 0.0
2018-May-13 04:57N 18°02' W 063°06'0 0.0
2018-May-13 04:23N 18°02' W 063°06'0 0.0
2018-May-13 03:56N 18°02' W 063°06'0 0.0
2018-May-13 03:26N 18°02' W 063°06'0 0.0
2018-May-13 02:56N 18°02' W 063°06'0 0.0
2018-May-13 02:29N 18°02' W 063°06'0 0.0
2018-May-13 01:56N 18°02' W 063°06'0 0.0
2018-May-13 01:29N 18°02' W 063°06'0 0.0
2018-May-13 00:56N 18°02' W 063°06'0 0.0
2018-May-13 00:29N 18°02' W 063°06'0 0.0
2018-May-12 23:59N 18°02' W 063°06'0 0.0
2018-May-12 23:29N 18°02' W 063°06'0 0.0
2018-May-12 22:59N 18°02' W 063°06'0 0.0
2018-May-12 22:18N 18°02' W 063°06'0 0.0
2018-May-12 21:47N 18°02' W 063°06'0 0.0
2018-May-12 21:20N 18°02' W 063°06'0 0.0
2018-May-12 20:44N 18°02' W 063°06'0 0.0
2018-May-12 20:17N 18°02' W 063°06'0 0.0
2018-May-12 19:50N 18°02' W 063°06'0 0.0
2018-May-12 19:20N 18°02' W 063°06'0 0.0
2018-May-12 18:50N 18°02' W 063°06'0 0.0
2018-May-12 18:23N 18°02' W 063°06'0 0.0
2018-May-12 17:50N 18°02' W 063°06'  
Track history (hours):
 
Tides and Currents Weather Stations Pressure Air Temp Water Temp Dewpoint Dewpoint Depression Visibility Wind Speed Wind Dir Waves Ship Positions

Dione Star

Last reported at 2018-May-22 17:38 UTC. Time now 2018-Jun-19 02:35 UTC.
Position N 17°54' W 062°54'.
Warning: this ship's position is 27 days out of date.

Length 42 m; draft 4 m.

Type: Sailing vessel. MMSI: 255912960.

Date/timePositionNaut miles runAvg speedWind from/ knotsBaromVisibWave heightAir tempDewpointWater temp
2018-May-22 17:38N 17°54' W 062°54'2 6.0
2018-May-22 17:21N 17°53' W 062°55'5 4.4
2018-May-22 16:21N 17°55' W 062°60'5 7.3
2018-May-22 15:43N 17°59' W 063°03'1 4.8
2018-May-22 15:30N 17°60' W 063°03'2 4.1
2018-May-22 15:00N 18°00' W 063°05'2 3.8
2018-May-22 14:30N 18°02' W 063°05'0 0.4
2018-May-22 14:00N 18°02' W 063°06'0 0.1
2018-May-22 13:21N 18°02' W 063°06'0 0.0
2018-May-22 12:51N 18°02' W 063°06'0 0.0
2018-May-22 12:24N 18°02' W 063°06'0 0.0
2018-May-22 11:51N 18°02' W 063°06'0 0.0
2018-May-22 11:24N 18°02' W 063°06'0 0.0
2018-May-22 10:51N 18°02' W 063°06'0 0.0
2018-May-22 10:21N 18°02' W 063°06'0 0.0
2018-May-22 09:51N 18°02' W 063°06'0 0.0
2018-May-22 09:24N 18°02' W 063°06'0 0.0
2018-May-22 08:57N 18°02' W 063°06'0 0.0
2018-May-22 08:27N 18°02' W 063°06'0 0.0
2018-May-22 07:57N 18°02' W 063°06'0 0.0
2018-May-22 07:27N 18°02' W 063°06'0 0.0
2018-May-22 07:00N 18°02' W 063°06'0 0.0
2018-May-22 06:30N 18°02' W 063°06'0 0.0
2018-May-22 05:57N 18°02' W 063°06'0 0.0
2018-May-22 05:30N 18°02' W 063°06'0 0.0
2018-May-22 04:57N 18°02' W 063°06'0 0.0
2018-May-22 04:30N 18°02' W 063°06'0 0.0
2018-May-22 04:00N 18°02' W 063°06'0 0.0
2018-May-22 03:30N 18°02' W 063°06'0 0.0
2018-May-22 02:57N 18°02' W 063°06'0 0.0
2018-May-22 02:30N 18°02' W 063°06'0 0.0
2018-May-22 01:57N 18°02' W 063°06'0 0.0
2018-May-22 01:30N 18°02' W 063°06'0 0.0
2018-May-22 00:51N 18°02' W 063°06'0 0.0
2018-May-22 00:15N 18°02' W 063°06'0 0.0
2018-May-21 23:51N 18°02' W 063°06'0 0.0
2018-May-21 23:21N 18°02' W 063°06'0 0.0
2018-May-21 23:00N 18°02' W 063°06'0 0.0
2018-May-21 22:18N 18°02' W 063°06'0 0.0
2018-May-21 21:48N 18°02' W 063°06'0 0.0
2018-May-21 21:30N 18°02' W 063°06'0 0.0
2018-May-21 20:54N 18°02' W 063°06'0 0.0
2018-May-21 20:24N 18°02' W 063°06'0 0.0
2018-May-21 19:54N 18°02' W 063°06'0 0.0
2018-May-21 19:24N 18°02' W 063°06'0 0.0
2018-May-21 18:51N 18°02' W 063°06'0 0.0
2018-May-21 18:27N 18°02' W 063°06'0 0.0
2018-May-21 17:58N 18°02' W 063°06'0 0.0
2018-May-21 17:21N 18°02' W 063°06'0 0.0
2018-May-21 16:57N 18°02' W 063°06'0 0.0
2018-May-21 16:27N 18°02' W 063°06'0 0.0
2018-May-21 15:57N 18°02' W 063°06'0 0.0
2018-May-21 15:27N 18°02' W 063°06'0 0.0
2018-May-21 15:00N 18°02' W 063°06'0 0.0
2018-May-21 14:27N 18°02' W 063°06'0 0.0
2018-May-21 13:57N 18°02' W 063°06'0 0.0
2018-May-21 13:27N 18°02' W 063°06'0 0.0
2018-May-21 12:57N 18°02' W 063°06'0 0.0
2018-May-21 12:30N 18°02' W 063°06'0 0.0
2018-May-21 11:57N 18°02' W 063°06'0 0.0
2018-May-21 11:30N 18°02' W 063°06'0 0.0
2018-May-21 10:45N 18°02' W 063°06'0 0.0
2018-May-21 10:18N 18°02' W 063°06'0 0.0
2018-May-21 09:48N 18°02' W 063°06'0 0.0
2018-May-21 09:18N 18°02' W 063°06'0 0.0
2018-May-21 08:51N 18°02' W 063°06'0 0.0
2018-May-21 08:21N 18°02' W 063°06'0 0.0
2018-May-21 07:51N 18°02' W 063°06'0 0.0
2018-May-21 07:21N 18°02' W 063°06'0 0.0
2018-May-21 06:51N 18°02' W 063°06'0 0.0
2018-May-21 06:24N 18°02' W 063°06'0 0.0
2018-May-21 05:54N 18°02' W 063°06'0 0.0
2018-May-21 05:21N 18°02' W 063°06'0 0.0
2018-May-21 04:54N 18°02' W 063°06'0 0.0
2018-May-21 04:24N 18°02' W 063°06'0 0.0
2018-May-21 03:54N 18°02' W 063°06'0 0.0
2018-May-21 03:27N 18°02' W 063°06'0 0.0
2018-May-21 02:57N 18°02' W 063°06'0 0.0
2018-May-21 02:27N 18°02' W 063°06'0 0.0
2018-May-21 01:57N 18°02' W 063°06'0 0.0
2018-May-21 01:27N 18°02' W 063°06'0 0.0
2018-May-21 00:57N 18°02' W 063°06'0 0.0
2018-May-21 00:30N 18°02' W 063°06'0 0.0
2018-May-20 23:57N 18°02' W 063°06'0 0.0
2018-May-20 23:30N 18°02' W 063°06'0 0.0
2018-May-20 22:57N 18°02' W 063°06'0 0.0
2018-May-20 22:30N 18°02' W 063°06'0 0.0
2018-May-20 22:00N 18°02' W 063°06'0 0.0
2018-May-20 21:30N 18°02' W 063°06'0 0.0
2018-May-20 20:57N 18°02' W 063°06'0 0.0
2018-May-20 20:30N 18°02' W 063°06'0 0.0
2018-May-20 20:00N 18°02' W 063°06'0 0.0
2018-May-20 19:18N 18°02' W 063°06'0 0.0
2018-May-20 18:51N 18°02' W 063°06'0 0.0
2018-May-20 18:21N 18°02' W 063°06'0 0.0
2018-May-20 17:51N 18°02' W 063°06'0 0.0
2018-May-20 17:21N 18°02' W 063°06'0 0.0
2018-May-20 17:00N 18°02' W 063°06'0 0.0
2018-May-20 16:18N 18°02' W 063°06'0 0.0
2018-May-20 15:51N 18°02' W 063°06'0 0.0
2018-May-20 15:21N 18°02' W 063°06'0 0.0
2018-May-20 14:54N 18°02' W 063°06'0 0.0
2018-May-20 14:24N 18°02' W 063°06'0 0.0
2018-May-20 13:57N 18°02' W 063°06'0 0.0
2018-May-20 13:24N 18°02' W 063°06'0 0.0
2018-May-20 12:57N 18°02' W 063°06'0 0.0
2018-May-20 12:24N 18°02' W 063°06'0 0.0
2018-May-20 11:57N 18°02' W 063°06'0 0.0
2018-May-20 11:27N 18°02' W 063°06'0 0.0
2018-May-20 10:57N 18°02' W 063°06'0 0.0
2018-May-20 10:27N 18°02' W 063°06'0 0.0
2018-May-20 09:57N 18°02' W 063°06'0 0.0
2018-May-20 09:27N 18°02' W 063°06'0 0.0
2018-May-20 08:57N 18°02' W 063°06'0 0.0
2018-May-20 08:30N 18°02' W 063°06'0 0.0
2018-May-20 08:00N 18°02' W 063°06'0 0.0
2018-May-20 07:30N 18°02' W 063°06'0 0.0
2018-May-20 06:48N 18°02' W 063°06'0 0.0
2018-May-20 06:27N 18°02' W 063°06'0 0.0
2018-May-20 06:00N 18°02' W 063°06'0 0.0
2018-May-20 05:30N 18°02' W 063°06'0 0.0
2018-May-20 05:00N 18°02' W 063°06'0 0.0
2018-May-20 04:30N 18°02' W 063°06'0 0.0
2018-May-20 04:00N 18°02' W 063°06'0 0.0
2018-May-20 03:21N 18°02' W 063°06'0 0.0
2018-May-20 02:51N 18°02' W 063°06'0 0.0
2018-May-20 02:21N 18°02' W 063°06'0 0.0
2018-May-20 01:51N 18°02' W 063°06'0 0.0
2018-May-20 01:21N 18°02' W 063°06'0 0.0
2018-May-20 00:54N 18°02' W 063°06'0 0.0
2018-May-20 00:21N 18°02' W 063°06'0 0.0
2018-May-19 23:51N 18°02' W 063°06'0 0.0
2018-May-19 23:24N 18°02' W 063°06'0 0.0
2018-May-19 22:57N 18°02' W 063°06'0 0.0
2018-May-19 22:27N 18°02' W 063°06'0 0.0
2018-May-19 21:57N 18°02' W 063°06'0 0.0
2018-May-19 21:27N 18°02' W 063°06'0 0.0
2018-May-19 20:57N 18°02' W 063°06'0 0.0
2018-May-19 20:27N 18°02' W 063°06'0 0.0
2018-May-19 19:57N 18°02' W 063°06'0 0.0
2018-May-19 19:27N 18°02' W 063°06'0 0.0
2018-May-19 18:57N 18°02' W 063°06'0 0.0
2018-May-19 18:30N 18°02' W 063°06'0 0.0
2018-May-19 17:57N 18°02' W 063°06'0 0.0
2018-May-19 17:30N 18°02' W 063°06'0 0.0
2018-May-19 16:45N 18°02' W 063°06'0 0.0
2018-May-19 16:27N 18°02' W 063°06'0 0.0
2018-May-19 15:57N 18°02' W 063°06'0 0.0
2018-May-19 15:30N 18°02' W 063°06'0 0.0
2018-May-19 14:33N 18°02' W 063°06'0 0.0
2018-May-19 14:30N 18°02' W 063°06'0 0.0
2018-May-19 14:00N 18°02' W 063°06'0 0.0
2018-May-19 13:30N 18°02' W 063°06'0 0.0
2018-May-19 12:51N 18°02' W 063°06'0 0.0
2018-May-19 12:21N 18°02' W 063°06'0 0.0
2018-May-19 11:51N 18°02' W 063°06'0 0.0
2018-May-19 11:24N 18°02' W 063°06'0 0.0
2018-May-19 10:51N 18°02' W 063°06'0 0.0
2018-May-19 10:18N 18°02' W 063°06'0 0.0
2018-May-19 09:54N 18°02' W 063°06'0 0.0
2018-May-19 09:09N 18°02' W 063°06'0 0.0
2018-May-19 08:54N 18°02' W 063°06'0 0.0
2018-May-19 08:21N 18°02' W 063°06'0 0.0
2018-May-19 07:51N 18°02' W 063°06'0 0.0
2018-May-19 07:12N 18°02' W 063°06'0 0.0
2018-May-19 06:57N 18°02' W 063°06'0 0.0
2018-May-19 06:27N 18°02' W 063°06'0 0.0
2018-May-19 05:57N 18°02' W 063°06'0 0.0
2018-May-19 05:30N 18°02' W 063°06'0 0.0
2018-May-19 05:00N 18°02' W 063°06'0 0.0
2018-May-19 04:30N 18°02' W 063°06'0 0.0
2018-May-19 04:00N 18°02' W 063°06'0 0.0
2018-May-19 03:30N 18°02' W 063°06'0 0.0
2018-May-19 03:00N 18°02' W 063°06'0 0.0
2018-May-19 02:30N 18°02' W 063°06'0 0.0
2018-May-19 02:00N 18°02' W 063°06'0 0.0
2018-May-19 01:30N 18°02' W 063°06'0 0.0
2018-May-19 01:00N 18°02' W 063°06'0 0.0
2018-May-19 00:18N 18°02' W 063°06'0 0.0
2018-May-19 00:00N 18°02' W 063°06'0 0.0
2018-May-18 23:30N 18°02' W 063°06'0 0.0
2018-May-18 23:00N 18°02' W 063°06'0 0.0
2018-May-18 22:30N 18°02' W 063°06'0 0.0
2018-May-18 22:00N 18°02' W 063°06'0 0.0
2018-May-18 21:21N 18°02' W 063°06'0 0.0
2018-May-18 20:48N 18°02' W 063°06'0 0.0
2018-May-18 20:18N 18°02' W 063°06'0 0.0
2018-May-18 19:54N 18°02' W 063°06'0 0.0
2018-May-18 19:24N 18°02' W 063°06'0 0.0
2018-May-18 18:54N 18°02' W 063°06'0 0.0
2018-May-18 18:24N 18°02' W 063°06'0 0.0
2018-May-18 17:54N 18°02' W 063°06'0 0.0
2018-May-18 17:27N 18°02' W 063°06'0 0.0
2018-May-18 16:54N 18°02' W 063°06'0 0.0
2018-May-18 16:12N 18°02' W 063°06'0 0.0
2018-May-18 15:57N 18°02' W 063°06'0 0.0
2018-May-18 15:27N 18°02' W 063°06'0 0.0
2018-May-18 14:57N 18°02' W 063°06'0 0.0
2018-May-18 14:27N 18°02' W 063°06'0 0.0
2018-May-18 13:39N 18°02' W 063°06'0 0.0
2018-May-18 13:27N 18°02' W 063°06'0 0.0
2018-May-18 12:45N 18°02' W 063°06'0 0.0
2018-May-18 12:30N 18°02' W 063°06'0 0.0
2018-May-18 12:00N 18°02' W 063°06'0 0.0
2018-May-18 11:30N 18°02' W 063°06'0 0.0
2018-May-18 11:00N 18°02' W 063°06'0 0.0
2018-May-18 10:30N 18°02' W 063°06'0 0.0
2018-May-18 10:00N 18°02' W 063°06'0 0.0
2018-May-18 09:30N 18°02' W 063°06'0 0.0
2018-May-18 08:48N 18°02' W 063°06'0 0.0
2018-May-18 08:30N 18°02' W 063°06'0 0.0
2018-May-18 07:51N 18°02' W 063°06'0 0.0
2018-May-18 07:30N 18°02' W 063°06'0 0.0
2018-May-18 06:51N 18°02' W 063°06'0 0.0
2018-May-18 06:21N 18°02' W 063°06'0 0.0
2018-May-18 05:51N 18°02' W 063°06'0 0.0
2018-May-18 05:24N 18°02' W 063°06'0 0.0
2018-May-18 04:54N 18°02' W 063°06'0 0.0
2018-May-18 04:24N 18°02' W 063°06'0 0.0
2018-May-18 03:51N 18°02' W 063°06'0 0.0
2018-May-18 03:24N 18°02' W 063°06'0 0.0
2018-May-18 02:57N 18°02' W 063°06'0 0.0
2018-May-18 02:27N 18°02' W 063°06'0 0.0
2018-May-18 01:57N 18°02' W 063°06'0 0.0
2018-May-18 01:27N 18°02' W 063°06'0 0.0
2018-May-18 00:57N 18°02' W 063°06'0 0.0
2018-May-18 00:27N 18°02' W 063°06'0 0.0
2018-May-17 23:57N 18°02' W 063°06'0 0.0
2018-May-17 23:27N 18°02' W 063°06'0 0.0
2018-May-17 23:00N 18°02' W 063°06'0 0.0
2018-May-17 22:27N 18°02' W 063°06'0 0.0
2018-May-17 22:00N 18°02' W 063°06'0 0.0
2018-May-17 21:27N 18°02' W 063°06'0 0.0
2018-May-17 20:57N 18°02' W 063°06'0 0.0
2018-May-17 20:27N 18°02' W 063°06'0 0.0
2018-May-17 19:48N 18°02' W 063°06'0 0.0
2018-May-17 19:30N 18°02' W 063°06'0 0.0
2018-May-17 18:48N 18°02' W 063°06'0 0.0
2018-May-17 18:30N 18°02' W 063°06'0 0.0
2018-May-17 18:00N 18°02' W 063°06'0 0.0
2018-May-17 17:21N 18°02' W 063°06'0 0.0
2018-May-17 17:00N 18°02' W 063°06'0 0.0
2018-May-17 16:21N 18°02' W 063°06'0 0.0
2018-May-17 15:09N 18°02' W 063°06'0 0.0
2018-May-17 14:51N 18°02' W 063°06'0 0.0
2018-May-17 14:24N 18°02' W 063°06'0 0.0
2018-May-17 13:54N 18°02' W 063°06'0 0.0
2018-May-17 13:24N 18°02' W 063°06'0 0.0
2018-May-17 12:54N 18°02' W 063°06'0 0.0
2018-May-17 12:27N 18°02' W 063°06'0 0.0
2018-May-17 11:57N 18°02' W 063°06'0 0.0
2018-May-17 11:27N 18°02' W 063°06'0 0.0
2018-May-17 10:57N 18°02' W 063°06'0 0.0
2018-May-17 10:27N 18°02' W 063°06'0 0.0
2018-May-17 09:51N 18°02' W 063°06'0 0.0
2018-May-17 09:27N 18°02' W 063°06'0 0.0
2018-May-17 08:57N 18°02' W 063°06'0 0.0
2018-May-17 08:30N 18°02' W 063°06'0 0.0
2018-May-17 08:00N 18°02' W 063°06'0 0.0
2018-May-17 07:30N 18°02' W 063°06'0 0.0
2018-May-17 07:00N 18°02' W 063°06'0 0.0
2018-May-17 06:27N 18°02' W 063°06'0 0.0
2018-May-17 05:57N 18°02' W 063°06'0 0.0
2018-May-17 05:27N 18°02' W 063°06'0 0.0
2018-May-17 05:00N 18°02' W 063°06'0 0.0
2018-May-17 04:30N 18°02' W 063°06'0 0.0
2018-May-17 04:00N 18°02' W 063°06'0 0.0
2018-May-17 03:30N 18°02' W 063°06'0 0.0
2018-May-17 02:51N 18°02' W 063°06'0 0.0
2018-May-17 02:21N 18°02' W 063°06'0 0.0
2018-May-17 02:00N 18°02' W 063°06'0 0.0
2018-May-17 01:21N 18°02' W 063°06'0 0.0
2018-May-17 00:51N 18°02' W 063°06'0 0.0
2018-May-17 00:24N 18°02' W 063°06'0 0.0
2018-May-16 23:51N 18°02' W 063°06'0 0.0
2018-May-16 23:24N 18°02' W 063°06'0 0.0
2018-May-16 22:54N 18°02' W 063°06'0 0.0
2018-May-16 22:24N 18°02' W 063°06'0 0.0
2018-May-16 21:51N 18°02' W 063°06'0 0.0
2018-May-16 21:27N 18°02' W 063°06'0 0.0
2018-May-16 20:57N 18°02' W 063°06'0 0.0
2018-May-16 20:27N 18°02' W 063°06'0 0.0
2018-May-16 19:57N 18°02' W 063°06'0 0.0
2018-May-16 19:27N 18°02' W 063°06'0 0.0
2018-May-16 18:57N 18°02' W 063°06'0 0.0
2018-May-16 18:27N 18°02' W 063°06'0 0.0
2018-May-16 17:57N 18°02' W 063°06'0 0.0
2018-May-16 17:27N 18°02' W 063°06'0 0.0
2018-May-16 16:57N 18°02' W 063°06'0 0.0
2018-May-16 16:27N 18°02' W 063°06'0 0.0
2018-May-16 16:00N 18°02' W 063°06'0 0.0
2018-May-16 15:30N 18°02' W 063°06'0 0.0
2018-May-16 15:00N 18°02' W 063°06'0 0.0
2018-May-16 14:30N 18°02' W 063°06'0 0.0
2018-May-16 14:00N 18°02' W 063°06'0 0.0
2018-May-16 13:30N 18°02' W 063°06'0 0.0
2018-May-16 12:51N 18°02' W 063°06'0 0.0
2018-May-16 12:30N 18°02' W 063°06'0 0.0
2018-May-16 12:00N 18°02' W 063°06'0 0.0
2018-May-16 11:21N 18°02' W 063°06'0 0.0
2018-May-16 10:51N 18°02' W 063°06'0 0.0
2018-May-16 10:24N 18°02' W 063°06'0 0.0
2018-May-16 09:54N 18°02' W 063°06'0 0.0
2018-May-16 09:20N 18°02' W 063°06'0 0.0
2018-May-16 08:51N 18°02' W 063°06'0 0.0
2018-May-16 08:21N 18°02' W 063°06'0 0.0
2018-May-16 07:54N 18°02' W 063°06'0 0.0
2018-May-16 07:09N 18°02' W 063°06'0 0.0
2018-May-16 06:54N 18°02' W 063°06'0 0.0
2018-May-16 06:27N 18°02' W 063°06'0 0.0
2018-May-16 05:57N 18°02' W 063°06'0 0.0
2018-May-16 05:26N 18°02' W 063°06'0 0.0
2018-May-16 04:57N 18°02' W 063°06'0 0.0
2018-May-16 04:27N 18°02' W 063°06'0 0.0
2018-May-16 04:00N 18°02' W 063°06'0 0.0
2018-May-16 03:30N 18°02' W 063°06'0 0.0
2018-May-16 02:57N 18°02' W 063°06'0 0.0
2018-May-16 02:30N 18°02' W 063°06'0 0.0
2018-May-16 01:59N 18°02' W 063°06'0 0.0
2018-May-16 01:29N 18°02' W 063°06'0 0.0
2018-May-16 00:59N 18°02' W 063°06'0 0.0
2018-May-16 00:29N 18°02' W 063°06'0 0.0
2018-May-15 23:59N 18°02' W 063°06'0 0.0
2018-May-15 23:30N 18°02' W 063°06'0 0.0
2018-May-15 22:47N 18°02' W 063°06'0 0.0
2018-May-15 22:29N 18°02' W 063°06'0 0.0
2018-May-15 22:00N 18°02' W 063°06'0 0.0
2018-May-15 21:20N 18°02' W 063°06'0 0.0
2018-May-15 20:44N 18°02' W 063°06'0 0.0
2018-May-15 20:20N 18°02' W 063°06'0 0.0
2018-May-15 19:51N 18°02' W 063°06'0 0.0
2018-May-15 19:20N 18°02' W 063°06'0 0.0
2018-May-15 18:53N 18°02' W 063°06'0 0.0
2018-May-15 18:20N 18°02' W 063°06'0 0.0
2018-May-15 17:50N 18°02' W 063°06'0 0.0
2018-May-15 17:24N 18°02' W 063°06'0 0.0
2018-May-15 16:50N 18°02' W 063°06'0 0.0
2018-May-15 16:27N 18°02' W 063°06'0 0.0
2018-May-15 15:54N 18°02' W 063°06'0 0.0
2018-May-15 15:27N 18°02' W 063°06'0 0.0
2018-May-15 14:57N 18°02' W 063°06'0 0.0
2018-May-15 14:27N 18°02' W 063°06'0 0.0
2018-May-15 14:00N 18°02' W 063°06'0 0.0
2018-May-15 13:26N 18°02' W 063°06'0 0.0
2018-May-15 12:56N 18°02' W 063°06'0 0.0
2018-May-15 12:30N 18°02' W 063°06'0 0.0
2018-May-15 11:59N 18°02' W 063°06'0 0.0
2018-May-15 11:27N 18°02' W 063°06'0 0.0
2018-May-15 10:59N 18°02' W 063°06'0 0.0
2018-May-15 10:29N 18°02' W 063°06'0 0.0
2018-May-15 09:56N 18°02' W 063°06'0 0.0
2018-May-15 09:30N 18°02' W 063°06'0 0.0
2018-May-15 08:59N 18°02' W 063°06'0 0.0
2018-May-15 08:29N 18°02' W 063°06'0 0.0
2018-May-15 08:00N 18°02' W 063°06'0 0.0
2018-May-15 07:29N 18°02' W 063°06'0 0.0
2018-May-15 06:59N 18°02' W 063°06'0 0.0
2018-May-15 06:29N 18°02' W 063°06'0 0.0
2018-May-15 05:48N 18°02' W 063°06'0 0.0
2018-May-15 05:23N 18°02' W 063°06'0 0.0
2018-May-15 04:53N 18°02' W 063°06'0 0.0
2018-May-15 04:17N 18°02' W 063°06'0 0.0
2018-May-15 03:54N 18°02' W 063°06'0 0.0
2018-May-15 03:23N 18°02' W 063°06'0 0.0
2018-May-15 02:54N 18°02' W 063°06'0 0.0
2018-May-15 02:24N 18°02' W 063°06'0 0.0
2018-May-15 01:54N 18°02' W 063°06'0 0.0
2018-May-15 01:21N 18°02' W 063°06'0 0.0
2018-May-15 00:57N 18°02' W 063°06'0 0.0
2018-May-15 00:27N 18°02' W 063°06'0 0.0
2018-May-14 23:57N 18°02' W 063°06'0 0.0
2018-May-14 23:26N 18°02' W 063°06'0 0.0
2018-May-14 22:56N 18°02' W 063°06'0 0.0
2018-May-14 22:26N 18°02' W 063°06'0 0.0
2018-May-14 21:59N 18°02' W 063°06'0 0.0
2018-May-14 21:30N 18°02' W 063°06'0 0.0
2018-May-14 20:59N 18°02' W 063°06'0 0.0
2018-May-14 20:30N 18°02' W 063°06'0 0.0
2018-May-14 19:56N 18°02' W 063°06'0 0.0
2018-May-14 19:27N 18°02' W 063°06'0 0.0
2018-May-14 18:56N 18°02' W 063°06'0 0.0
2018-May-14 18:17N 18°02' W 063°06'0 0.0
2018-May-14 17:59N 18°02' W 063°06'0 0.0
2018-May-14 17:29N 18°02' W 063°06'0 0.0
2018-May-14 16:51N 18°02' W 063°06'0 0.0
2018-May-14 16:21N 18°02' W 063°06'0 0.0
2018-May-14 15:50N 18°02' W 063°06'0 0.0
2018-May-14 15:05N 18°02' W 063°06'0 0.0
2018-May-14 14:50N 18°02' W 063°06'0 0.0
2018-May-14 14:20N 18°02' W 063°06'0 0.0
2018-May-14 13:51N 18°02' W 063°06'0 0.0
2018-May-14 13:23N 18°02' W 063°06'0 0.0
2018-May-14 12:50N 18°02' W 063°06'0 0.0
2018-May-14 11:53N 18°02' W 063°06'0 0.0
2018-May-14 11:26N 18°02' W 063°06'0 0.0
2018-May-14 10:56N 18°02' W 063°06'0 0.0
2018-May-14 10:27N 18°02' W 063°06'0 0.0
2018-May-14 09:56N 18°02' W 063°06'0 0.0
2018-May-14 09:26N 18°02' W 063°06'0 0.0
2018-May-14 08:56N 18°02' W 063°06'0 0.0
2018-May-14 08:26N 18°02' W 063°06'0 0.0
2018-May-14 07:57N 18°02' W 063°06'0 0.0
2018-May-14 07:11N 18°02' W 063°06'0 0.0
2018-May-14 06:44N 18°02' W 063°06'0 0.0
2018-May-14 06:29N 18°02' W 063°06'0 0.0
2018-May-14 05:56N 18°02' W 063°06'0 0.0
2018-May-14 05:29N 18°02' W 063°06'0 0.0
2018-May-14 04:59N 18°02' W 063°06'0 0.0
2018-May-14 04:26N 18°02' W 063°06'0 0.0
2018-May-14 03:56N 18°02' W 063°06'0 0.0
2018-May-14 03:29N 18°02' W 063°06'0 0.0
2018-May-14 02:59N 18°02' W 063°06'0 0.0
2018-May-14 02:29N 18°02' W 063°06'0 0.0
2018-May-14 01:59N 18°02' W 063°06'0 0.0
2018-May-14 01:17N 18°02' W 063°06'0 0.0
2018-May-14 00:50N 18°02' W 063°06'0 0.0
2018-May-14 00:20N 18°02' W 063°06'0 0.0
2018-May-13 23:59N 18°02' W 063°06'0 0.0
2018-May-13 23:21N 18°02' W 063°06'0 0.0
2018-May-13 22:53N 18°02' W 063°06'0 0.0
2018-May-13 22:21N 18°02' W 063°06'0 0.0
2018-May-13 21:51N 18°02' W 063°06'0 0.0
2018-May-13 21:23N 18°02' W 063°06'0 0.0
2018-May-13 20:50N 18°02' W 063°06'0 0.0
2018-May-13 20:26N 18°02' W 063°06'0 0.0
2018-May-13 19:56N 18°02' W 063°06'0 0.0
2018-May-13 19:26N 18°02' W 063°06'0 0.0
2018-May-13 18:57N 18°02' W 063°06'0 0.0
2018-May-13 18:26N 18°02' W 063°06'0 0.0
2018-May-13 17:56N 18°02' W 063°06'0 0.0
2018-May-13 17:26N 18°02' W 063°06'0 0.0
2018-May-13 16:59N 18°02' W 063°06'0 0.0
2018-May-13 16:29N 18°02' W 063°06'0 0.0
2018-May-13 15:57N 18°02' W 063°06'0 0.0
2018-May-13 15:26N 18°02' W 063°06'0 0.0
2018-May-13 14:59N 18°02' W 063°06'0 0.0
2018-May-13 14:17N 18°02' W 063°06'0 0.0
2018-May-13 13:59N 18°02' W 063°06'0 0.0
2018-May-13 13:29N 18°02' W 063°06'0 0.0
2018-May-13 12:59N 18°02' W 063°06'0 0.0
2018-May-13 12:14N 18°02' W 063°06'0 0.0
2018-May-13 11:59N 18°02' W 063°06'0 0.0
2018-May-13 11:29N 18°02' W 063°06'0 0.0
2018-May-13 10:59N 18°02' W 063°06'0 0.0
2018-May-13 10:21N 18°02' W 063°06'0 0.0
2018-May-13 09:32N 18°02' W 063°06'0 0.0
2018-May-13 09:20N 18°02' W 063°06'0 0.0
2018-May-13 08:50N 18°02' W 063°06'0 0.0
2018-May-13 08:20N 18°02' W 063°06'0 0.0
2018-May-13 07:53N 18°02' W 063°06'0 0.0
2018-May-13 07:23N 18°02' W 063°06'0 0.0
2018-May-13 06:50N 18°02' W 063°06'0 0.0
2018-May-13 06:27N 18°02' W 063°06'0 0.0
2018-May-13 05:56N 18°02' W 063°06'0 0.0
2018-May-13 05:20N 18°02' W 063°06'0 0.0
2018-May-13 04:57N 18°02' W 063°06'0 0.0
2018-May-13 04:23N 18°02' W 063°06'0 0.0
2018-May-13 03:56N 18°02' W 063°06'0 0.0
2018-May-13 03:26N 18°02' W 063°06'0 0.0
2018-May-13 02:56N 18°02' W 063°06'0 0.0
2018-May-13 02:29N 18°02' W 063°06'0 0.0
2018-May-13 01:56N 18°02' W 063°06'0 0.0
2018-May-13 01:29N 18°02' W 063°06'0 0.0
2018-May-13 00:56N 18°02' W 063°06'0 0.0
2018-May-13 00:29N 18°02' W 063°06'0 0.0
2018-May-12 23:59N 18°02' W 063°06'0 0.0
2018-May-12 23:29N 18°02' W 063°06'0 0.0
2018-May-12 22:59N 18°02' W 063°06'0 0.0
2018-May-12 22:18N 18°02' W 063°06'0 0.0
2018-May-12 21:47N 18°02' W 063°06'0 0.0
2018-May-12 21:20N 18°02' W 063°06'0 0.0
2018-May-12 20:44N 18°02' W 063°06'0 0.0
2018-May-12 20:17N 18°02' W 063°06'0 0.0
2018-May-12 19:50N 18°02' W 063°06'0 0.0
2018-May-12 19:20N 18°02' W 063°06'0 0.0
2018-May-12 18:50N 18°02' W 063°06'0 0.0
2018-May-12 18:23N 18°02' W 063°06'0 0.0
2018-May-12 17:50N 18°02' W 063°06'  

Dump ship's entire track history